Pan Margaret — 3FFH3 — position and weather

sailwx.info

Track history (hours):
 
Tides and Currents Weather Stations Pressure Air Temp Water Temp Dewpoint Dewpoint Depression Visibility Wind Speed Wind Dir Waves Ship Positions

Pan Margaret

Last reported at 2017-Dec-12 16:24 UTC. Time now 2017-Dec-17 08:18 UTC.
Position N 01°23' E 104°26'.

Length 292 m; draft 18.6 m.

Type: Cargo ship. MMSI: 353267000.

Date/timePositionNaut miles runAvg speedWind from/ knotsBaromVisibWave heightAir tempDewpointWater temp
2017-Dec-12 16:24N 01°23' E 104°26'513.2
2017-Dec-12 16:00N 01°19' E 104°23'1211.2
2017-Dec-12 14:54N 01°16' E 104°11'511.2
2017-Dec-12 14:29N 01°15' E 104°06'6 9.6
2017-Dec-12 13:50N 01°17' E 103°60'0 0.7
2017-Dec-12 13:30N 01°17' E 103°60'0 0.1
2017-Dec-12 12:53N 01°17' E 103°60'0 0.1
2017-Dec-12 12:11N 01°17' E 103°60'0 0.0
2017-Dec-12 11:59N 01°17' E 103°60'0 0.1
2017-Dec-12 11:29N 01°17' E 103°59'0 0.0
2017-Dec-12 10:47N 01°17' E 103°59'0 0.0
2017-Dec-12 10:17N 01°17' E 103°59'0 0.0
2017-Dec-12 09:29N 01°17' E 103°59'0 0.0
2017-Dec-12 08:59N 01°17' E 103°59'0 0.0
2017-Dec-12 08:11N 01°17' E 103°59'0 0.0
2017-Dec-12 07:59N 01°17' E 103°59'0 0.0
2017-Dec-12 07:29N 01°17' E 103°59'0 0.0
2017-Dec-12 06:56N 01°17' E 103°59'0 0.0
2017-Dec-12 06:29N 01°17' E 103°59'0 0.0
2017-Dec-12 05:50N 01°17' E 103°59'0 0.0
2017-Dec-12 05:11N 01°17' E 103°59'0 0.0
2017-Dec-12 04:41N 01°17' E 103°59'0 0.0
2017-Dec-12 04:29N 01°17' E 103°59'0 0.0
2017-Dec-12 03:29N 01°17' E 103°59'0 0.0
2017-Dec-12 02:50N 01°17' E 103°59'0 0.0
2017-Dec-12 02:05N 01°17' E 103°59'0 0.1
2017-Dec-12 01:56N 01°17' E 103°59'0 0.0
2017-Dec-12 01:29N 01°17' E 103°59'0 0.0
2017-Dec-12 00:44N 01°17' E 103°59'0 0.0
2017-Dec-12 00:23N 01°17' E 103°59'1 1.5
2017-Dec-12 00:01N 01°16' E 103°59'3 5.3
2017-Dec-11 23:31N 01°15' E 103°57'3 5.6
2017-Dec-11 23:01N 01°13' E 103°55'4 8.7
2017-Dec-11 22:30N 01°11' E 103°51'5 9.2
2017-Dec-11 22:00N 01°09' E 103°47'510.2
2017-Dec-11 21:30N 01°06' E 103°43'4 8.1
2017-Dec-11 21:00N 01°03' E 103°40'5 9.6
2017-Dec-11 20:30N 01°05' E 103°35'612.2
2017-Dec-11 19:59N 01°08' E 103°30'612.3
2017-Dec-11 19:30N 01°11' E 103°25'612.4
2017-Dec-11 19:00N 01°15' E 103°20'  
Track history (hours):
 
Tides and Currents Weather Stations Pressure Air Temp Water Temp Dewpoint Dewpoint Depression Visibility Wind Speed Wind Dir Waves Ship Positions

Pan Margaret

Last reported at 2017-Dec-12 16:24 UTC. Time now 2017-Dec-17 08:18 UTC.
Position N 01°23' E 104°26'.

Length 292 m; draft 18.6 m.

Type: Cargo ship. MMSI: 353267000.

Date/timePositionNaut miles runAvg speedWind from/ knotsBaromVisibWave heightAir tempDewpointWater temp
2017-Dec-12 16:24N 01°23' E 104°26'513.2
2017-Dec-12 16:00N 01°19' E 104°23'1211.2
2017-Dec-12 14:54N 01°16' E 104°11'511.2
2017-Dec-12 14:29N 01°15' E 104°06'6 9.6
2017-Dec-12 13:50N 01°17' E 103°60'0 0.7
2017-Dec-12 13:30N 01°17' E 103°60'0 0.1
2017-Dec-12 12:53N 01°17' E 103°60'0 0.1
2017-Dec-12 12:11N 01°17' E 103°60'0 0.0
2017-Dec-12 11:59N 01°17' E 103°60'0 0.1
2017-Dec-12 11:29N 01°17' E 103°59'0 0.0
2017-Dec-12 10:47N 01°17' E 103°59'0 0.0
2017-Dec-12 10:17N 01°17' E 103°59'0 0.0
2017-Dec-12 09:29N 01°17' E 103°59'0 0.0
2017-Dec-12 08:59N 01°17' E 103°59'0 0.0
2017-Dec-12 08:11N 01°17' E 103°59'0 0.0
2017-Dec-12 07:59N 01°17' E 103°59'0 0.0
2017-Dec-12 07:29N 01°17' E 103°59'0 0.0
2017-Dec-12 06:56N 01°17' E 103°59'0 0.0
2017-Dec-12 06:29N 01°17' E 103°59'0 0.0
2017-Dec-12 05:50N 01°17' E 103°59'0 0.0
2017-Dec-12 05:11N 01°17' E 103°59'0 0.0
2017-Dec-12 04:41N 01°17' E 103°59'0 0.0
2017-Dec-12 04:29N 01°17' E 103°59'0 0.0
2017-Dec-12 03:29N 01°17' E 103°59'0 0.0
2017-Dec-12 02:50N 01°17' E 103°59'0 0.0
2017-Dec-12 02:05N 01°17' E 103°59'0 0.1
2017-Dec-12 01:56N 01°17' E 103°59'0 0.0
2017-Dec-12 01:29N 01°17' E 103°59'0 0.0
2017-Dec-12 00:44N 01°17' E 103°59'0 0.0
2017-Dec-12 00:23N 01°17' E 103°59'1 1.5
2017-Dec-12 00:01N 01°16' E 103°59'3 5.3
2017-Dec-11 23:31N 01°15' E 103°57'3 5.6
2017-Dec-11 23:01N 01°13' E 103°55'4 8.7
2017-Dec-11 22:30N 01°11' E 103°51'5 9.2
2017-Dec-11 22:00N 01°09' E 103°47'510.2
2017-Dec-11 21:30N 01°06' E 103°43'4 8.1
2017-Dec-11 21:00N 01°03' E 103°40'5 9.6
2017-Dec-11 20:30N 01°05' E 103°35'612.2
2017-Dec-11 19:59N 01°08' E 103°30'612.3
2017-Dec-11 19:30N 01°11' E 103°25'612.4
2017-Dec-11 19:00N 01°15' E 103°20'  

Dump ship's entire track history